sensor_id;sensor_type;location;lat;lon;timestamp;P1;durP1;ratioP1;P2;durP2;ratioP2
6358;SDS011;3212;51.460;11.868;2023-03-01T00:03:21;13.53;;;7.53;;
6358;SDS011;3212;51.460;11.868;2023-03-01T00:06:45;12.50;;;7.43;;
6358;SDS011;3212;51.460;11.868;2023-03-01T00:10:08;13.40;;;7.03;;
6358;SDS011;3212;51.460;11.868;2023-03-01T00:13:32;16.10;;;8.48;;
6358;SDS011;3212;51.460;11.868;2023-03-01T00:16:54;13.73;;;7.47;;
6358;SDS011;3212;51.460;11.868;2023-03-01T00:20:17;11.80;;;6.73;;
6358;SDS011;3212;51.460;11.868;2023-03-01T00:23:41;14.17;;;7.60;;
6358;SDS011;3212;51.460;11.868;2023-03-01T00:27:03;16.30;;;7.73;;
6358;SDS011;3212;51.460;11.868;2023-03-01T00:30:25;14.57;;;7.63;;
6358;SDS011;3212;51.460;11.868;2023-03-01T00:33:48;16.60;;;8.47;;
6358;SDS011;3212;51.460;11.868;2023-03-01T00:37:11;16.07;;;7.80;;
6358;SDS011;3212;51.460;11.868;2023-03-01T00:40:34;16.70;;;8.67;;
6358;SDS011;3212;51.460;11.868;2023-03-01T00:43:55;14.67;;;8.23;;
6358;SDS011;3212;51.460;11.868;2023-03-01T00:47:19;13.97;;;7.70;;
6358;SDS011;3212;51.460;11.868;2023-03-01T00:50:42;13.83;;;8.20;;
6358;SDS011;3212;51.460;11.868;2023-03-01T00:54:05;16.90;;;8.07;;
6358;SDS011;3212;51.460;11.868;2023-03-01T00:57:27;18.07;;;8.40;;
6358;SDS011;3212;51.460;11.868;2023-03-01T01:00:50;20.33;;;9.60;;
6358;SDS011;3212;51.460;11.868;2023-03-01T01:04:13;18.03;;;8.03;;
6358;SDS011;3212;51.460;11.868;2023-03-01T01:07:35;15.03;;;7.87;;
6358;SDS011;3212;51.460;11.868;2023-03-01T01:10:58;16.30;;;7.90;;
6358;SDS011;3212;51.460;11.868;2023-03-01T01:14:21;15.20;;;8.47;;
6358;SDS011;3212;51.460;11.868;2023-03-01T01:17:43;16.10;;;8.20;;
6358;SDS011;3212;51.460;11.868;2023-03-01T01:21:07;13.77;;;7.80;;
6358;SDS011;3212;51.460;11.868;2023-03-01T01:24:29;15.83;;;8.37;;
6358;SDS011;3212;51.460;11.868;2023-03-01T01:27:51;15.30;;;7.00;;
6358;SDS011;3212;51.460;11.868;2023-03-01T01:31:14;15.20;;;8.50;;
6358;SDS011;3212;51.460;11.868;2023-03-01T01:34:36;15.40;;;7.90;;
6358;SDS011;3212;51.460;11.868;2023-03-01T01:37:59;12.90;;;7.60;;
6358;SDS011;3212;51.460;11.868;2023-03-01T01:41:22;19.60;;;8.90;;
6358;SDS011;3212;51.460;11.868;2023-03-01T01:44:46;14.90;;;7.87;;
6358;SDS011;3212;51.460;11.868;2023-03-01T01:48:10;17.33;;;8.57;;
6358;SDS011;3212;51.460;11.868;2023-03-01T01:51:33;17.30;;;8.30;;
6358;SDS011;3212;51.460;11.868;2023-03-01T01:54:59;17.33;;;8.40;;
6358;SDS011;3212;51.460;11.868;2023-03-01T01:58:22;17.53;;;8.77;;
6358;SDS011;3212;51.460;11.868;2023-03-01T02:01:44;17.47;;;9.27;;
6358;SDS011;3212;51.460;11.868;2023-03-01T02:05:11;21.73;;;9.10;;
6358;SDS011;3212;51.460;11.868;2023-03-01T02:08:35;17.63;;;8.97;;
6358;SDS011;3212;51.460;11.868;2023-03-01T02:11:56;19.07;;;9.57;;
6358;SDS011;3212;51.460;11.868;2023-03-01T02:15:20;17.60;;;9.47;;
6358;SDS011;3212;51.460;11.868;2023-03-01T02:18:42;17.53;;;9.00;;
6358;SDS011;3212;51.460;11.868;2023-03-01T02:22:11;17.23;;;9.07;;
6358;SDS011;3212;51.460;11.868;2023-03-01T02:25:36;17.13;;;8.50;;
6358;SDS011;3212;51.460;11.868;2023-03-01T02:28:58;16.87;;;8.30;;
6358;SDS011;3212;51.460;11.868;2023-03-01T02:32:20;15.60;;;7.77;;
6358;SDS011;3212;51.460;11.868;2023-03-01T02:35:43;16.97;;;7.67;;
6358;SDS011;3212;51.460;11.868;2023-03-01T02:39:06;15.20;;;7.20;;
6358;SDS011;3212;51.460;11.868;2023-03-01T02:42:31;12.10;;;6.73;;
6358;SDS011;3212;51.460;11.868;2023-03-01T02:45:52;12.83;;;7.03;;
6358;SDS011;3212;51.460;11.868;2023-03-01T02:49:21;12.77;;;7.40;;
6358;SDS011;3212;51.460;11.868;2023-03-01T02:52:47;12.47;;;7.27;;
6358;SDS011;3212;51.460;11.868;2023-03-01T02:56:08;12.95;;;7.22;;
6358;SDS011;3212;51.460;11.868;2023-03-01T02:59:32;12.10;;;6.23;;
6358;SDS011;3212;51.460;11.868;2023-03-01T03:02:54;11.93;;;6.80;;
6358;SDS011;3212;51.460;11.868;2023-03-01T03:06:17;11.47;;;6.80;;
6358;SDS011;3212;51.460;11.868;2023-03-01T03:09:39;13.40;;;7.27;;
6358;SDS011;3212;51.460;11.868;2023-03-01T03:13:03;14.67;;;7.23;;
6358;SDS011;3212;51.460;11.868;2023-03-01T03:16:24;16.62;;;6.70;;
6358;SDS011;3212;51.460;11.868;2023-03-01T03:19:47;10.63;;;6.67;;
6358;SDS011;3212;51.460;11.868;2023-03-01T03:23:11;16.73;;;7.97;;
6358;SDS011;3212;51.460;11.868;2023-03-01T03:26:33;14.37;;;7.23;;
6358;SDS011;3212;51.460;11.868;2023-03-01T03:29:56;11.73;;;6.30;;
6358;SDS011;3212;51.460;11.868;2023-03-01T03:33:18;12.33;;;6.73;;
6358;SDS011;3212;51.460;11.868;2023-03-01T03:36:41;18.70;;;8.50;;
6358;SDS011;3212;51.460;11.868;2023-03-01T03:40:04;15.50;;;6.97;;
6358;SDS011;3212;51.460;11.868;2023-03-01T03:43:28;13.07;;;7.03;;
6358;SDS011;3212;51.460;11.868;2023-03-01T03:46:50;13.10;;;7.03;;
6358;SDS011;3212;51.460;11.868;2023-03-01T03:50:13;13.17;;;7.03;;
6358;SDS011;3212;51.460;11.868;2023-03-01T03:53:36;13.17;;;6.57;;
6358;SDS011;3212;51.460;11.868;2023-03-01T03:56:58;14.40;;;7.17;;
6358;SDS011;3212;51.460;11.868;2023-03-01T04:00:21;16.67;;;7.30;;
6358;SDS011;3212;51.460;11.868;2023-03-01T04:03:44;13.67;;;7.17;;
6358;SDS011;3212;51.460;11.868;2023-03-01T04:07:08;14.07;;;7.10;;
6358;SDS011;3212;51.460;11.868;2023-03-01T04:10:31;13.70;;;7.15;;
6358;SDS011;3212;51.460;11.868;2023-03-01T04:13:54;13.47;;;6.80;;
6358;SDS011;3212;51.460;11.868;2023-03-01T04:17:16;13.80;;;6.97;;
6358;SDS011;3212;51.460;11.868;2023-03-01T04:20:39;13.53;;;7.33;;
6358;SDS011;3212;51.460;11.868;2023-03-01T04:24:02;14.97;;;7.40;;
6358;SDS011;3212;51.460;11.868;2023-03-01T04:27:24;16.33;;;7.43;;
6358;SDS011;3212;51.460;11.868;2023-03-01T04:30:47;11.70;;;6.90;;
6358;SDS011;3212;51.460;11.868;2023-03-01T04:34:10;13.27;;;6.67;;
6358;SDS011;3212;51.460;11.868;2023-03-01T04:37:32;15.83;;;7.20;;
6358;SDS011;3212;51.460;11.868;2023-03-01T04:40:55;12.02;;;7.10;;
6358;SDS011;3212;51.460;11.868;2023-03-01T04:44:18;13.80;;;7.40;;
6358;SDS011;3212;51.460;11.868;2023-03-01T04:47:41;14.40;;;7.23;;
6358;SDS011;3212;51.460;11.868;2023-03-01T04:51:04;13.53;;;7.03;;
6358;SDS011;3212;51.460;11.868;2023-03-01T04:54:28;13.40;;;6.80;;
6358;SDS011;3212;51.460;11.868;2023-03-01T04:57:50;14.70;;;7.27;;
6358;SDS011;3212;51.460;11.868;2023-03-01T05:01:16;16.98;;;7.82;;
6358;SDS011;3212;51.460;11.868;2023-03-01T05:04:36;17.93;;;7.50;;
6358;SDS011;3212;51.460;11.868;2023-03-01T05:08:00;14.73;;;7.73;;
6358;SDS011;3212;51.460;11.868;2023-03-01T05:11:21;18.93;;;8.10;;
6358;SDS011;3212;51.460;11.868;2023-03-01T05:14:44;14.40;;;7.03;;
6358;SDS011;3212;51.460;11.868;2023-03-01T05:18:06;15.43;;;7.50;;
6358;SDS011;3212;51.460;11.868;2023-03-01T05:21:29;13.43;;;7.27;;
6358;SDS011;3212;51.460;11.868;2023-03-01T05:24:52;21.30;;;8.20;;
6358;SDS011;3212;51.460;11.868;2023-03-01T05:28:15;16.77;;;8.03;;
6358;SDS011;3212;51.460;11.868;2023-03-01T05:31:38;17.40;;;8.03;;
6358;SDS011;3212;51.460;11.868;2023-03-01T05:35:02;12.63;;;6.90;;
6358;SDS011;3212;51.460;11.868;2023-03-01T05:38:24;14.97;;;7.00;;
6358;SDS011;3212;51.460;11.868;2023-03-01T05:41:46;14.63;;;7.67;;
6358;SDS011;3212;51.460;11.868;2023-03-01T05:45:09;15.40;;;8.37;;
6358;SDS011;3212;51.460;11.868;2023-03-01T05:48:32;16.87;;;8.63;;
6358;SDS011;3212;51.460;11.868;2023-03-01T05:51:54;19.47;;;8.20;;
6358;SDS011;3212;51.460;11.868;2023-03-01T05:55:17;15.20;;;8.30;;
6358;SDS011;3212;51.460;11.868;2023-03-01T05:58:39;12.97;;;7.67;;
6358;SDS011;3212;51.460;11.868;2023-03-01T06:02:02;15.80;;;8.80;;
6358;SDS011;3212;51.460;11.868;2023-03-01T06:05:25;15.97;;;8.20;;
6358;SDS011;3212;51.460;11.868;2023-03-01T06:08:47;14.93;;;8.00;;
6358;SDS011;3212;51.460;11.868;2023-03-01T06:12:10;15.90;;;8.90;;
6358;SDS011;3212;51.460;11.868;2023-03-01T06:15:32;17.43;;;8.60;;
6358;SDS011;3212;51.460;11.868;2023-03-01T06:18:55;23.30;;;9.60;;
6358;SDS011;3212;51.460;11.868;2023-03-01T06:22:18;17.73;;;8.60;;
6358;SDS011;3212;51.460;11.868;2023-03-01T06:25:41;18.13;;;8.30;;
6358;SDS011;3212;51.460;11.868;2023-03-01T06:29:03;17.87;;;9.13;;
6358;SDS011;3212;51.460;11.868;2023-03-01T06:32:26;16.50;;;8.60;;
6358;SDS011;3212;51.460;11.868;2023-03-01T06:35:49;21.43;;;10.10;;
6358;SDS011;3212;51.460;11.868;2023-03-01T06:39:11;22.03;;;8.87;;
6358;SDS011;3212;51.460;11.868;2023-03-01T06:42:35;22.77;;;9.00;;
6358;SDS011;3212;51.460;11.868;2023-03-01T06:45:57;15.27;;;9.20;;
6358;SDS011;3212;51.460;11.868;2023-03-01T06:49:19;19.20;;;9.87;;
6358;SDS011;3212;51.460;11.868;2023-03-01T06:52:42;17.27;;;9.23;;
6358;SDS011;3212;51.460;11.868;2023-03-01T06:56:05;19.50;;;10.27;;
6358;SDS011;3212;51.460;11.868;2023-03-01T06:59:27;20.07;;;9.40;;
6358;SDS011;3212;51.460;11.868;2023-03-01T07:02:51;16.43;;;9.10;;
6358;SDS011;3212;51.460;11.868;2023-03-01T07:06:13;15.10;;;8.67;;
6358;SDS011;3212;51.460;11.868;2023-03-01T07:09:37;31.50;;;11.30;;
6358;SDS011;3212;51.460;11.868;2023-03-01T07:13:00;42.97;;;13.17;;
6358;SDS011;3212;51.460;11.868;2023-03-01T07:16:22;25.90;;;11.20;;
6358;SDS011;3212;51.460;11.868;2023-03-01T07:19:44;18.57;;;9.60;;
6358;SDS011;3212;51.460;11.868;2023-03-01T07:23:08;25.83;;;9.93;;
6358;SDS011;3212;51.460;11.868;2023-03-01T07:26:31;18.20;;;9.37;;
6358;SDS011;3212;51.460;11.868;2023-03-01T07:29:54;18.07;;;9.87;;
6358;SDS011;3212;51.460;11.868;2023-03-01T07:33:17;16.00;;;9.63;;
6358;SDS011;3212;51.460;11.868;2023-03-01T07:36:39;15.70;;;8.57;;
6358;SDS011;3212;51.460;11.868;2023-03-01T07:40:02;20.43;;;9.10;;
6358;SDS011;3212;51.460;11.868;2023-03-01T07:43:25;19.13;;;9.50;;
6358;SDS011;3212;51.460;11.868;2023-03-01T07:46:47;14.97;;;8.50;;
6358;SDS011;3212;51.460;11.868;2023-03-01T07:50:10;18.50;;;9.00;;
6358;SDS011;3212;51.460;11.868;2023-03-01T07:53:33;19.20;;;9.20;;
6358;SDS011;3212;51.460;11.868;2023-03-01T07:56:56;12.83;;;7.70;;
6358;SDS011;3212;51.460;11.868;2023-03-01T08:00:19;15.80;;;8.57;;
6358;SDS011;3212;51.460;11.868;2023-03-01T08:03:43;16.60;;;8.80;;
6358;SDS011;3212;51.460;11.868;2023-03-01T08:07:06;21.70;;;9.17;;
6358;SDS011;3212;51.460;11.868;2023-03-01T08:10:28;13.60;;;7.90;;
6358;SDS011;3212;51.460;11.868;2023-03-01T08:13:51;16.73;;;8.93;;
6358;SDS011;3212;51.460;11.868;2023-03-01T08:17:14;14.13;;;7.83;;
6358;SDS011;3212;51.460;11.868;2023-03-01T08:20:37;13.70;;;8.00;;
6358;SDS011;3212;51.460;11.868;2023-03-01T08:24:00;14.33;;;8.80;;
6358;SDS011;3212;51.460;11.868;2023-03-01T08:27:24;15.47;;;9.30;;
6358;SDS011;3212;51.460;11.868;2023-03-01T08:30:47;16.57;;;8.63;;
6358;SDS011;3212;51.460;11.868;2023-03-01T08:34:10;15.70;;;8.20;;
6358;SDS011;3212;51.460;11.868;2023-03-01T08:37:32;18.23;;;8.97;;
6358;SDS011;3212;51.460;11.868;2023-03-01T08:40:54;14.40;;;9.10;;
6358;SDS011;3212;51.460;11.868;2023-03-01T08:44:17;13.40;;;7.80;;
6358;SDS011;3212;51.460;11.868;2023-03-01T08:47:41;14.40;;;8.30;;
6358;SDS011;3212;51.460;11.868;2023-03-01T08:51:07;12.77;;;7.80;;
6358;SDS011;3212;51.460;11.868;2023-03-01T08:54:30;13.37;;;8.33;;
6358;SDS011;3212;51.460;11.868;2023-03-01T08:57:53;19.37;;;9.40;;
6358;SDS011;3212;51.460;11.868;2023-03-01T09:01:16;12.07;;;7.53;;
6358;SDS011;3212;51.460;11.868;2023-03-01T09:04:38;16.40;;;8.40;;
6358;SDS011;3212;51.460;11.868;2023-03-01T09:08:01;13.37;;;8.30;;
6358;SDS011;3212;51.460;11.868;2023-03-01T09:11:23;16.23;;;8.63;;
6358;SDS011;3212;51.460;11.868;2023-03-01T09:14:46;14.40;;;8.57;;
6358;SDS011;3212;51.460;11.868;2023-03-01T09:18:08;17.10;;;9.30;;
6358;SDS011;3212;51.460;11.868;2023-03-01T09:21:31;16.50;;;9.07;;
6358;SDS011;3212;51.460;11.868;2023-03-01T09:24:54;16.10;;;9.23;;
6358;SDS011;3212;51.460;11.868;2023-03-01T09:28:16;14.37;;;8.63;;
6358;SDS011;3212;51.460;11.868;2023-03-01T09:31:45;13.97;;;8.60;;
6358;SDS011;3212;51.460;11.868;2023-03-01T09:35:08;15.90;;;8.37;;
6358;SDS011;3212;51.460;11.868;2023-03-01T09:38:30;16.00;;;8.70;;
6358;SDS011;3212;51.460;11.868;2023-03-01T09:42:00;15.90;;;8.57;;
6358;SDS011;3212;51.460;11.868;2023-03-01T09:45:25;17.90;;;9.07;;
6358;SDS011;3212;51.460;11.868;2023-03-01T09:48:55;12.70;;;7.57;;
6358;SDS011;3212;51.460;11.868;2023-03-01T09:52:19;15.90;;;7.90;;
6358;SDS011;3212;51.460;11.868;2023-03-01T09:55:44;15.60;;;8.60;;
6358;SDS011;3212;51.460;11.868;2023-03-01T10:02:45;15.57;;;8.50;;
6358;SDS011;3212;51.460;11.868;2023-03-01T10:06:14;16.80;;;8.77;;
6358;SDS011;3212;51.460;11.868;2023-03-01T10:09:38;19.50;;;9.27;;
6358;SDS011;3212;51.460;11.868;2023-03-01T10:13:03;16.33;;;9.50;;
6358;SDS011;3212;51.460;11.868;2023-03-01T10:16:31;16.03;;;8.83;;
6358;SDS011;3212;51.460;11.868;2023-03-01T10:19:51;17.90;;;9.40;;
6358;SDS011;3212;51.460;11.868;2023-03-01T10:23:13;17.40;;;10.03;;
6358;SDS011;3212;51.460;11.868;2023-03-01T10:26:40;18.73;;;10.20;;
6358;SDS011;3212;51.460;11.868;2023-03-01T10:30:10;21.87;;;10.07;;
6358;SDS011;3212;51.460;11.868;2023-03-01T10:33:35;15.43;;;9.67;;
6358;SDS011;3212;51.460;11.868;2023-03-01T10:40:36;19.77;;;10.07;;
6358;SDS011;3212;51.460;11.868;2023-03-01T10:43:58;20.47;;;9.97;;
6358;SDS011;3212;51.460;11.868;2023-03-01T10:47:21;19.30;;;10.30;;
6358;SDS011;3212;51.460;11.868;2023-03-01T10:50:47;18.43;;;10.13;;
6358;SDS011;3212;51.460;11.868;2023-03-01T11:01:35;19.37;;;9.70;;
6358;SDS011;3212;51.460;11.868;2023-03-01T11:05:00;16.67;;;9.30;;
6358;SDS011;3212;51.460;11.868;2023-03-01T11:08:29;15.20;;;9.23;;
6358;SDS011;3212;51.460;11.868;2023-03-01T11:11:54;18.43;;;8.90;;
6358;SDS011;3212;51.460;11.868;2023-03-01T11:15:20;18.00;;;9.50;;
6358;SDS011;3212;51.460;11.868;2023-03-01T11:18:43;14.03;;;8.07;;
6358;SDS011;3212;51.460;11.868;2023-03-01T11:22:07;18.13;;;8.60;;
6358;SDS011;3212;51.460;11.868;2023-03-01T11:25:46;13.30;;;8.00;;
6358;SDS011;3212;51.460;11.868;2023-03-01T11:29:14;16.50;;;9.57;;
6358;SDS011;3212;51.460;11.868;2023-03-01T11:32:38;14.20;;;7.83;;
6358;SDS011;3212;51.460;11.868;2023-03-01T11:36:03;11.20;;;7.00;;
6358;SDS011;3212;51.460;11.868;2023-03-01T11:39:27;15.77;;;7.13;;
6358;SDS011;3212;51.460;11.868;2023-03-01T11:42:52;14.93;;;7.57;;
6358;SDS011;3212;51.460;11.868;2023-03-01T11:46:23;13.13;;;7.80;;
6358;SDS011;3212;51.460;11.868;2023-03-01T11:49:48;15.83;;;7.10;;
6358;SDS011;3212;51.460;11.868;2023-03-01T11:53:32;11.70;;;6.57;;
6358;SDS011;3212;51.460;11.868;2023-03-01T11:56:57;10.77;;;6.60;;
6358;SDS011;3212;51.460;11.868;2023-03-01T12:04:16;9.90;;;6.13;;
6358;SDS011;3212;51.460;11.868;2023-03-01T12:07:53;12.20;;;7.63;;
6358;SDS011;3212;51.460;11.868;2023-03-01T12:11:20;11.18;;;6.53;;
6358;SDS011;3212;51.460;11.868;2023-03-01T12:14:51;11.60;;;6.97;;
6358;SDS011;3212;51.460;11.868;2023-03-01T12:22:17;9.13;;;5.80;;
6358;SDS011;3212;51.460;11.868;2023-03-01T12:25:39;11.52;;;6.22;;
6358;SDS011;3212;51.460;11.868;2023-03-01T12:32:45;8.70;;;5.20;;
6358;SDS011;3212;51.460;11.868;2023-03-01T12:36:24;10.90;;;6.27;;
6358;SDS011;3212;51.460;11.868;2023-03-01T12:40:00;10.57;;;5.97;;
6358;SDS011;3212;51.460;11.868;2023-03-01T12:43:26;10.67;;;5.97;;
6358;SDS011;3212;51.460;11.868;2023-03-01T12:46:49;11.80;;;5.90;;
6358;SDS011;3212;51.460;11.868;2023-03-01T12:50:14;11.40;;;6.03;;
6358;SDS011;3212;51.460;11.868;2023-03-01T12:53:41;12.33;;;6.30;;
6358;SDS011;3212;51.460;11.868;2023-03-01T13:00:56;10.13;;;5.60;;
6358;SDS011;3212;51.460;11.868;2023-03-01T13:08:14;10.20;;;5.43;;
6358;SDS011;3212;51.460;11.868;2023-03-01T13:11:36;9.90;;;5.83;;
6358;SDS011;3212;51.460;11.868;2023-03-01T13:14:58;10.07;;;5.60;;
6358;SDS011;3212;51.460;11.868;2023-03-01T13:18:28;10.17;;;5.70;;
6358;SDS011;3212;51.460;11.868;2023-03-01T13:21:52;9.73;;;5.67;;
6358;SDS011;3212;51.460;11.868;2023-03-01T13:25:16;11.30;;;6.00;;
6358;SDS011;3212;51.460;11.868;2023-03-01T13:32:19;8.43;;;5.33;;
6358;SDS011;3212;51.460;11.868;2023-03-01T13:35:46;7.60;;;4.60;;
6358;SDS011;3212;51.460;11.868;2023-03-01T13:42:44;9.87;;;6.07;;
6358;SDS011;3212;51.460;11.868;2023-03-01T13:46:08;9.33;;;5.30;;
6358;SDS011;3212;51.460;11.868;2023-03-01T13:49:36;16.47;;;5.50;;
6358;SDS011;3212;51.460;11.868;2023-03-01T13:53:12;11.97;;;6.60;;
6358;SDS011;3212;51.460;11.868;2023-03-01T13:56:35;10.23;;;5.40;;
6358;SDS011;3212;51.460;11.868;2023-03-01T13:59:56;17.23;;;7.53;;
6358;SDS011;3212;51.460;11.868;2023-03-01T14:03:19;9.20;;;6.20;;
6358;SDS011;3212;51.460;11.868;2023-03-01T14:06:42;17.77;;;10.93;;
6358;SDS011;3212;51.460;11.868;2023-03-01T14:10:05;10.90;;;6.13;;
6358;SDS011;3212;51.460;11.868;2023-03-01T14:13:31;15.90;;;9.33;;
6358;SDS011;3212;51.460;11.868;2023-03-01T14:17:03;8.63;;;5.23;;
6358;SDS011;3212;51.460;11.868;2023-03-01T14:20:27;8.60;;;5.20;;
6358;SDS011;3212;51.460;11.868;2023-03-01T14:23:50;10.80;;;6.70;;
6358;SDS011;3212;51.460;11.868;2023-03-01T14:27:13;10.30;;;5.40;;
6358;SDS011;3212;51.460;11.868;2023-03-01T14:30:38;8.63;;;5.20;;
6358;SDS011;3212;51.460;11.868;2023-03-01T14:34:00;12.10;;;5.77;;
6358;SDS011;3212;51.460;11.868;2023-03-01T14:37:26;6.30;;;4.30;;
6358;SDS011;3212;51.460;11.868;2023-03-01T14:40:47;9.90;;;5.03;;
6358;SDS011;3212;51.460;11.868;2023-03-01T14:44:12;8.33;;;4.83;;
6358;SDS011;3212;51.460;11.868;2023-03-01T14:47:35;5.50;;;3.67;;
6358;SDS011;3212;51.460;11.868;2023-03-01T14:50:57;9.60;;;4.33;;
6358;SDS011;3212;51.460;11.868;2023-03-01T14:54:27;7.40;;;4.10;;
6358;SDS011;3212;51.460;11.868;2023-03-01T14:57:50;6.93;;;4.00;;
6358;SDS011;3212;51.460;11.868;2023-03-01T15:01:15;6.28;;;4.25;;
6358;SDS011;3212;51.460;11.868;2023-03-01T15:04:37;7.60;;;4.40;;
6358;SDS011;3212;51.460;11.868;2023-03-01T15:08:00;8.60;;;4.50;;
6358;SDS011;3212;51.460;11.868;2023-03-01T15:11:26;9.02;;;4.15;;
6358;SDS011;3212;51.460;11.868;2023-03-01T15:14:48;5.10;;;3.83;;
6358;SDS011;3212;51.460;11.868;2023-03-01T15:18:18;8.70;;;4.53;;
6358;SDS011;3212;51.460;11.868;2023-03-01T15:21:42;10.50;;;4.50;;
6358;SDS011;3212;51.460;11.868;2023-03-01T15:25:03;7.70;;;4.80;;
6358;SDS011;3212;51.460;11.868;2023-03-01T15:28:27;13.87;;;7.53;;
6358;SDS011;3212;51.460;11.868;2023-03-01T15:31:56;6.10;;;4.07;;
6358;SDS011;3212;51.460;11.868;2023-03-01T15:38:54;5.93;;;3.40;;
6358;SDS011;3212;51.460;11.868;2023-03-01T15:46:03;7.50;;;4.17;;
6358;SDS011;3212;51.460;11.868;2023-03-01T15:49:33;6.23;;;4.03;;
6358;SDS011;3212;51.460;11.868;2023-03-01T15:52:55;7.53;;;4.37;;
6358;SDS011;3212;51.460;11.868;2023-03-01T15:56:17;7.47;;;4.50;;
6358;SDS011;3212;51.460;11.868;2023-03-01T15:59:41;7.50;;;4.80;;
6358;SDS011;3212;51.460;11.868;2023-03-01T16:03:05;7.57;;;4.90;;
6358;SDS011;3212;51.460;11.868;2023-03-01T16:06:28;7.53;;;4.67;;
6358;SDS011;3212;51.460;11.868;2023-03-01T16:09:51;7.53;;;4.87;;
6358;SDS011;3212;51.460;11.868;2023-03-01T16:13:14;8.50;;;5.00;;
6358;SDS011;3212;51.460;11.868;2023-03-01T16:16:37;9.90;;;5.37;;
6358;SDS011;3212;51.460;11.868;2023-03-01T16:20:00;8.20;;;5.33;;
6358;SDS011;3212;51.460;11.868;2023-03-01T16:23:24;9.13;;;5.17;;
6358;SDS011;3212;51.460;11.868;2023-03-01T16:26:47;7.63;;;4.70;;
6358;SDS011;3212;51.460;11.868;2023-03-01T16:30:10;11.70;;;4.70;;
6358;SDS011;3212;51.460;11.868;2023-03-01T16:33:33;8.50;;;4.70;;
6358;SDS011;3212;51.460;11.868;2023-03-01T16:36:56;9.60;;;5.50;;
6358;SDS011;3212;51.460;11.868;2023-03-01T16:40:22;8.93;;;4.70;;
6358;SDS011;3212;51.460;11.868;2023-03-01T16:43:43;8.37;;;4.70;;
6358;SDS011;3212;51.460;11.868;2023-03-01T16:47:06;8.37;;;5.07;;
6358;SDS011;3212;51.460;11.868;2023-03-01T16:50:29;10.87;;;5.80;;
6358;SDS011;3212;51.460;11.868;2023-03-01T16:53:52;11.47;;;5.87;;
6358;SDS011;3212;51.460;11.868;2023-03-01T16:57:16;10.37;;;6.30;;
6358;SDS011;3212;51.460;11.868;2023-03-01T17:00:39;14.50;;;7.90;;
6358;SDS011;3212;51.460;11.868;2023-03-01T17:04:02;16.77;;;8.17;;
6358;SDS011;3212;51.460;11.868;2023-03-01T17:07:25;17.37;;;8.23;;
6358;SDS011;3212;51.460;11.868;2023-03-01T17:10:48;16.13;;;9.07;;
6358;SDS011;3212;51.460;11.868;2023-03-01T17:14:11;18.40;;;8.63;;
6358;SDS011;3212;51.460;11.868;2023-03-01T17:17:34;18.43;;;9.00;;
6358;SDS011;3212;51.460;11.868;2023-03-01T17:20:57;14.03;;;7.17;;
6358;SDS011;3212;51.460;11.868;2023-03-01T17:24:20;13.40;;;6.30;;
6358;SDS011;3212;51.460;11.868;2023-03-01T17:27:43;10.00;;;6.10;;
6358;SDS011;3212;51.460;11.868;2023-03-01T17:31:06;10.87;;;6.40;;
6358;SDS011;3212;51.460;11.868;2023-03-01T17:34:30;10.33;;;6.70;;
6358;SDS011;3212;51.460;11.868;2023-03-01T17:37:51;10.60;;;5.83;;
6358;SDS011;3212;51.460;11.868;2023-03-01T17:41:14;11.50;;;6.00;;
6358;SDS011;3212;51.460;11.868;2023-03-01T17:44:36;10.77;;;5.47;;
6358;SDS011;3212;51.460;11.868;2023-03-01T17:47:59;10.30;;;6.03;;
6358;SDS011;3212;51.460;11.868;2023-03-01T17:51:22;14.13;;;7.32;;
6358;SDS011;3212;51.460;11.868;2023-03-01T17:54:45;11.93;;;6.40;;
6358;SDS011;3212;51.460;11.868;2023-03-01T17:58:09;10.07;;;5.60;;
6358;SDS011;3212;51.460;11.868;2023-03-01T18:01:31;17.67;;;7.40;;
6358;SDS011;3212;51.460;11.868;2023-03-01T18:04:56;14.53;;;6.90;;
6358;SDS011;3212;51.460;11.868;2023-03-01T18:08:18;16.80;;;7.70;;
6358;SDS011;3212;51.460;11.868;2023-03-01T18:11:40;16.50;;;7.60;;
6358;SDS011;3212;51.460;11.868;2023-03-01T18:15:05;14.97;;;7.00;;
6358;SDS011;3212;51.460;11.868;2023-03-01T18:18:30;13.17;;;7.33;;
6358;SDS011;3212;51.460;11.868;2023-03-01T18:21:53;16.37;;;7.30;;
6358;SDS011;3212;51.460;11.868;2023-03-01T18:25:16;14.43;;;6.83;;
6358;SDS011;3212;51.460;11.868;2023-03-01T18:28:39;13.33;;;7.20;;
6358;SDS011;3212;51.460;11.868;2023-03-01T18:32:03;11.43;;;7.10;;
6358;SDS011;3212;51.460;11.868;2023-03-01T18:35:25;11.40;;;6.83;;
6358;SDS011;3212;51.460;11.868;2023-03-01T18:38:48;15.40;;;7.12;;
6358;SDS011;3212;51.460;11.868;2023-03-01T18:42:10;9.53;;;6.20;;
6358;SDS011;3212;51.460;11.868;2023-03-01T18:45:34;11.73;;;6.70;;
6358;SDS011;3212;51.460;11.868;2023-03-01T18:48:57;10.97;;;6.40;;
6358;SDS011;3212;51.460;11.868;2023-03-01T18:52:20;12.67;;;6.73;;
6358;SDS011;3212;51.460;11.868;2023-03-01T18:55:42;10.80;;;6.53;;
6358;SDS011;3212;51.460;11.868;2023-03-01T18:59:05;17.60;;;7.03;;
6358;SDS011;3212;51.460;11.868;2023-03-01T19:02:29;12.17;;;6.73;;
6358;SDS011;3212;51.460;11.868;2023-03-01T19:05:52;12.07;;;6.80;;
6358;SDS011;3212;51.460;11.868;2023-03-01T19:09:15;9.90;;;6.57;;
6358;SDS011;3212;51.460;11.868;2023-03-01T19:12:38;14.07;;;7.13;;
6358;SDS011;3212;51.460;11.868;2023-03-01T19:16:02;15.03;;;7.70;;
6358;SDS011;3212;51.460;11.868;2023-03-01T19:19:23;11.90;;;7.60;;
6358;SDS011;3212;51.460;11.868;2023-03-01T19:22:45;18.93;;;8.43;;
6358;SDS011;3212;51.460;11.868;2023-03-01T19:26:10;14.17;;;8.50;;
6358;SDS011;3212;51.460;11.868;2023-03-01T19:29:32;16.90;;;8.17;;
6358;SDS011;3212;51.460;11.868;2023-03-01T19:32:55;14.00;;;8.20;;
6358;SDS011;3212;51.460;11.868;2023-03-01T19:36:18;15.77;;;8.50;;
6358;SDS011;3212;51.460;11.868;2023-03-01T19:39:41;17.73;;;8.30;;
6358;SDS011;3212;51.460;11.868;2023-03-01T19:43:04;15.67;;;8.80;;
6358;SDS011;3212;51.460;11.868;2023-03-01T19:46:27;20.30;;;9.67;;
6358;SDS011;3212;51.460;11.868;2023-03-01T19:49:50;16.40;;;9.70;;
6358;SDS011;3212;51.460;11.868;2023-03-01T19:53:13;20.40;;;9.83;;
6358;SDS011;3212;51.460;11.868;2023-03-01T19:56:37;12.60;;;8.43;;
6358;SDS011;3212;51.460;11.868;2023-03-01T19:59:59;12.43;;;7.87;;
6358;SDS011;3212;51.460;11.868;2023-03-01T20:03:23;13.90;;;8.23;;
6358;SDS011;3212;51.460;11.868;2023-03-01T20:06:45;14.43;;;7.33;;
6358;SDS011;3212;51.460;11.868;2023-03-01T20:10:08;14.23;;;8.23;;
6358;SDS011;3212;51.460;11.868;2023-03-01T20:13:32;12.17;;;7.30;;
6358;SDS011;3212;51.460;11.868;2023-03-01T20:16:55;12.90;;;6.80;;
6358;SDS011;3212;51.460;11.868;2023-03-01T20:20:18;15.33;;;7.40;;
6358;SDS011;3212;51.460;11.868;2023-03-01T20:23:41;13.50;;;7.20;;
6358;SDS011;3212;51.460;11.868;2023-03-01T20:27:03;13.50;;;7.70;;
6358;SDS011;3212;51.460;11.868;2023-03-01T20:30:25;14.13;;;6.50;;
6358;SDS011;3212;51.460;11.868;2023-03-01T20:33:48;11.50;;;6.47;;
6358;SDS011;3212;51.460;11.868;2023-03-01T20:37:10;10.60;;;6.40;;
6358;SDS011;3212;51.460;11.868;2023-03-01T20:40:33;11.80;;;6.43;;
6358;SDS011;3212;51.460;11.868;2023-03-01T20:43:56;14.00;;;6.47;;
6358;SDS011;3212;51.460;11.868;2023-03-01T20:47:21;9.60;;;6.03;;
6358;SDS011;3212;51.460;11.868;2023-03-01T20:50:43;19.30;;;9.57;;
6358;SDS011;3212;51.460;11.868;2023-03-01T20:54:07;13.30;;;6.50;;
6358;SDS011;3212;51.460;11.868;2023-03-01T20:57:30;12.10;;;6.20;;
6358;SDS011;3212;51.460;11.868;2023-03-01T21:00:52;11.43;;;6.20;;
6358;SDS011;3212;51.460;11.868;2023-03-01T21:04:15;10.93;;;6.33;;
6358;SDS011;3212;51.460;11.868;2023-03-01T21:07:38;11.73;;;6.73;;
6358;SDS011;3212;51.460;11.868;2023-03-01T21:11:00;9.90;;;6.23;;
6358;SDS011;3212;51.460;11.868;2023-03-01T21:14:23;13.70;;;6.97;;
6358;SDS011;3212;51.460;11.868;2023-03-01T21:17:46;14.90;;;6.93;;